createdAt,value
2023-05-09T00:02:23.703Z,20.13
2023-05-09T00:04:51.587Z,24.83
2023-05-09T00:07:19.379Z,16.47
2023-05-09T00:09:47.113Z,17.60
2023-05-09T00:12:15.087Z,19.52
2023-05-09T00:14:45.338Z,17.17
2023-05-09T00:17:15.807Z,21.83
2023-05-09T00:19:43.981Z,24.40
2023-05-09T00:22:12.874Z,19.80
2023-05-09T00:24:40.655Z,21.60
2023-05-09T00:27:08.458Z,20.83
2023-05-09T00:29:36.909Z,22.70
2023-05-09T00:32:05.124Z,24.90
2023-05-09T00:34:34.674Z,27.73
2023-05-09T00:37:02.472Z,21.73
2023-05-09T00:39:30.146Z,28.98
2023-05-09T00:41:57.990Z,23.02
2023-05-09T00:44:25.953Z,26.27
2023-05-09T00:46:53.941Z,27.15
2023-05-09T00:49:22.307Z,26.25
2023-05-09T00:51:51.503Z,45.55
2023-05-09T00:54:19.274Z,27.17
2023-05-09T00:56:47.350Z,27.23
2023-05-09T00:59:16.962Z,27.77
2023-05-09T01:01:45.849Z,25.70
2023-05-09T01:04:14.890Z,26.02
2023-05-09T01:06:51.397Z,30.08
2023-05-09T01:09:25.785Z,26.47
2023-05-09T01:12:04.650Z,32.25
2023-05-09T01:14:41.178Z,30.60
2023-05-09T01:17:13.406Z,32.47
2023-05-09T01:20:05.609Z,31.63
2023-05-09T01:22:36.313Z,34.23
2023-05-09T01:25:46.785Z,32.80
2023-05-09T01:28:18.034Z,36.38
2023-05-09T01:30:48.498Z,38.13
2023-05-09T01:33:20.578Z,34.92
2023-05-09T01:36:01.432Z,42.23
2023-05-09T01:38:31.722Z,38.70
2023-05-09T01:41:00.449Z,37.42
2023-05-09T01:43:30.980Z,37.50
2023-05-09T01:46:00.821Z,38.67
2023-05-09T01:48:30.912Z,42.70
2023-05-09T01:51:00.055Z,42.65
2023-05-09T01:53:29.360Z,45.60
2023-05-09T01:55:58.397Z,40.83
2023-05-09T01:58:28.049Z,41.95
2023-05-09T02:00:55.880Z,46.27
2023-05-09T02:03:25.680Z,41.25
2023-05-09T02:05:54.809Z,47.33
2023-05-09T02:08:22.854Z,45.15
2023-05-09T02:10:51.246Z,54.30
2023-05-09T02:13:19.011Z,50.10
2023-05-09T02:15:48.166Z,50.22
2023-05-09T02:18:17.938Z,51.45
2023-05-09T02:20:47.482Z,49.90
2023-05-09T02:23:15.621Z,45.20
2023-05-09T02:25:43.904Z,48.37
2023-05-09T02:28:12.240Z,51.67
2023-05-09T02:30:42.980Z,52.88
2023-05-09T02:33:13.595Z,45.00
2023-05-09T02:35:43.387Z,47.55
2023-05-09T02:38:15.745Z,49.23
2023-05-09T02:40:44.354Z,51.85
2023-05-09T02:43:12.269Z,47.95
2023-05-09T02:45:40.190Z,54.60
2023-05-09T02:48:09.138Z,52.40
2023-05-09T02:50:39.443Z,49.93
2023-05-09T02:53:07.265Z,49.53
2023-05-09T02:55:36.547Z,53.10
2023-05-09T02:58:13.534Z,46.28
2023-05-09T03:00:43.932Z,52.90
2023-05-09T03:03:13.700Z,51.10
2023-05-09T03:05:41.809Z,50.60
2023-05-09T03:08:09.516Z,49.08
2023-05-09T03:10:38.719Z,50.95
2023-05-09T03:13:06.570Z,49.85
2023-05-09T03:15:34.385Z,50.37
2023-05-09T03:18:02.094Z,50.15
2023-05-09T03:20:30.355Z,52.78
2023-05-09T03:22:58.648Z,49.65
2023-05-09T03:25:27.129Z,51.88
2023-05-09T03:27:56.288Z,58.00
2023-05-09T03:30:26.484Z,53.67
2023-05-09T03:32:56.228Z,58.10
2023-05-09T03:35:24.269Z,51.70
2023-05-09T03:37:52.001Z,52.78
2023-05-09T03:40:19.782Z,51.07
2023-05-09T03:42:53.634Z,52.55
2023-05-09T03:45:22.979Z,52.75
2023-05-09T03:47:50.969Z,52.70
2023-05-09T03:50:20.064Z,50.30
2023-05-09T03:52:47.979Z,53.60
2023-05-09T03:55:18.412Z,53.63
2023-05-09T03:57:46.262Z,52.92
2023-05-09T04:00:14.664Z,51.65
2023-05-09T04:02:44.104Z,49.35
2023-05-09T04:05:21.982Z,50.77
2023-05-09T04:07:49.938Z,49.42
2023-05-09T04:10:19.534Z,48.88
2023-05-09T04:12:47.476Z,53.72
2023-05-09T04:15:17.712Z,50.25
2023-05-09T04:17:47.351Z,47.03
2023-05-09T04:20:15.096Z,50.05
2023-05-09T04:22:46.728Z,44.85
2023-05-09T04:25:16.984Z,49.58
2023-05-09T04:27:46.187Z,49.15
2023-05-09T04:30:14.724Z,49.07
2023-05-09T04:32:45.834Z,50.15
2023-05-09T04:35:16.845Z,53.50
2023-05-09T04:37:48.742Z,47.45
2023-05-09T04:40:16.909Z,45.40
2023-05-09T04:42:51.745Z,44.23
2023-05-09T04:45:22.633Z,43.53
2023-05-09T04:47:50.503Z,43.53
2023-05-09T04:50:19.643Z,46.72
2023-05-09T04:52:47.417Z,45.25
2023-05-09T04:55:17.536Z,42.93
2023-05-09T04:57:48.252Z,47.47
2023-05-09T05:00:17.733Z,41.67
2023-05-09T05:02:47.991Z,40.45
2023-05-09T05:05:15.980Z,41.75
2023-05-09T05:07:46.138Z,40.23
2023-05-09T05:10:19.794Z,39.92
2023-05-09T05:12:51.712Z,39.88
2023-05-09T05:15:20.483Z,39.35
2023-05-09T05:17:49.400Z,36.70
2023-05-09T05:20:21.208Z,35.00
2023-05-09T05:22:51.626Z,36.42
2023-05-09T05:25:19.425Z,37.75
2023-05-09T05:27:49.151Z,38.97
2023-05-09T05:30:17.654Z,42.65
2023-05-09T05:32:45.819Z,38.40
2023-05-09T05:35:16.745Z,35.05
2023-05-09T05:37:45.542Z,43.22
2023-05-09T05:40:16.017Z,34.58
2023-05-09T05:42:46.693Z,37.10
2023-05-09T05:45:14.876Z,38.10
2023-05-09T05:47:47.128Z,38.30
2023-05-09T05:50:15.341Z,34.58
2023-05-09T05:52:43.648Z,35.65
2023-05-09T05:55:16.296Z,35.85
2023-05-09T05:57:44.398Z,31.83
2023-05-09T06:00:16.399Z,31.50
2023-05-09T06:02:51.814Z,30.67
2023-05-09T06:05:30.574Z,31.77
2023-05-09T06:07:58.365Z,30.27
2023-05-09T06:10:27.516Z,29.37
2023-05-09T06:12:55.352Z,28.48
2023-05-09T06:15:23.595Z,32.33
2023-05-09T06:17:52.064Z,25.73
2023-05-09T06:20:19.971Z,26.20
2023-05-09T06:22:47.826Z,26.53
2023-05-09T06:25:16.002Z,26.33
2023-05-09T06:27:45.672Z,27.23
2023-05-09T06:30:25.472Z,25.10
2023-05-09T06:32:54.874Z,24.83
2023-05-09T06:35:22.897Z,26.63
2023-05-09T06:37:50.849Z,24.95
2023-05-09T06:40:18.592Z,23.95
2023-05-09T06:42:47.714Z,23.77
2023-05-09T06:45:16.730Z,25.33
2023-05-09T06:47:44.686Z,24.63
2023-05-09T06:50:12.553Z,28.33
2023-05-09T06:52:40.327Z,21.88
2023-05-09T06:55:09.657Z,26.75
2023-05-09T06:57:37.503Z,23.05
2023-05-09T07:00:09.254Z,26.33
2023-05-09T07:02:41.515Z,23.50
2023-05-09T07:05:10.686Z,22.05
2023-05-09T07:07:38.523Z,23.40
2023-05-09T07:10:11.810Z,26.17
2023-05-09T07:12:40.474Z,26.93
2023-05-09T07:15:11.309Z,24.88
2023-05-09T07:17:39.357Z,23.90
2023-05-09T07:20:08.320Z,25.75
2023-05-09T07:22:37.435Z,24.98
2023-05-09T07:25:08.087Z,24.33
2023-05-09T07:27:36.154Z,26.38
2023-05-09T07:30:04.296Z,26.75
2023-05-09T07:32:33.682Z,25.33
2023-05-09T07:35:01.477Z,26.50
2023-05-09T07:37:29.218Z,27.77
2023-05-09T07:39:56.993Z,23.63
2023-05-09T07:42:24.732Z,25.30
2023-05-09T07:44:52.432Z,30.85
2023-05-09T07:47:20.180Z,25.52
2023-05-09T07:49:49.310Z,27.60
2023-05-09T07:52:17.907Z,20.75
2023-05-09T07:54:45.918Z,21.77
2023-05-09T07:57:13.764Z,25.50
2023-05-09T07:59:42.267Z,24.75
2023-05-09T08:02:09.990Z,26.93
2023-05-09T08:04:41.233Z,24.67
2023-05-09T08:07:11.703Z,21.95
2023-05-09T08:09:39.449Z,24.15
2023-05-09T08:12:07.681Z,23.10
2023-05-09T08:14:35.588Z,27.33
2023-05-09T08:17:03.310Z,23.33
2023-05-09T08:19:31.159Z,21.52
2023-05-09T08:21:58.951Z,23.40
2023-05-09T08:24:28.189Z,22.38
2023-05-09T08:26:55.941Z,24.23
2023-05-09T08:29:23.641Z,24.08
2023-05-09T08:31:51.719Z,20.40
2023-05-09T08:34:19.508Z,16.63
2023-05-09T08:36:47.294Z,17.88
2023-05-09T08:39:15.034Z,18.90
2023-05-09T08:41:44.509Z,19.33
2023-05-09T08:44:12.457Z,17.52
2023-05-09T08:46:43.924Z,17.77
2023-05-09T08:49:12.000Z,17.20
2023-05-09T08:51:41.214Z,22.77
2023-05-09T08:54:09.233Z,18.33
2023-05-09T08:56:37.307Z,17.95
2023-05-09T08:59:07.024Z,17.48
2023-05-09T09:01:35.627Z,16.77
2023-05-09T09:04:06.325Z,15.40
2023-05-09T09:06:35.665Z,18.50
2023-05-09T09:09:07.005Z,18.00
2023-05-09T09:11:36.104Z,17.45
2023-05-09T09:14:12.843Z,16.30
2023-05-09T09:16:43.549Z,17.90
2023-05-09T09:19:14.437Z,16.15
2023-05-09T09:21:43.751Z,16.60
2023-05-09T09:24:14.347Z,16.38
2023-05-09T09:26:48.397Z,15.48
2023-05-09T09:29:18.984Z,15.07
2023-05-09T09:31:48.528Z,15.15
2023-05-09T09:34:23.474Z,15.23
2023-05-09T09:36:51.293Z,15.20
2023-05-09T09:39:19.314Z,13.73
2023-05-09T09:41:47.076Z,15.17
2023-05-09T09:44:17.449Z,14.95
2023-05-09T09:46:47.516Z,17.30
2023-05-09T09:49:17.488Z,15.30
2023-05-09T09:51:45.895Z,15.15
2023-05-09T09:54:14.135Z,15.83
2023-05-09T09:56:43.832Z,16.20
2023-05-09T09:59:13.371Z,21.25
2023-05-09T10:01:58.494Z,15.43
2023-05-09T10:04:27.998Z,20.63
2023-05-09T10:06:56.666Z,18.63
2023-05-09T10:09:24.973Z,16.85
2023-05-09T10:11:53.720Z,16.15
2023-05-09T10:14:23.382Z,15.90
2023-05-09T10:16:52.825Z,17.00
2023-05-09T10:19:23.614Z,14.73
2023-05-09T10:21:54.886Z,14.20
2023-05-09T10:24:28.575Z,14.52
2023-05-09T10:27:05.102Z,15.50
2023-05-09T10:29:36.972Z,12.88
2023-05-09T10:32:16.600Z,13.27
2023-05-09T10:34:50.519Z,13.98
2023-05-09T10:37:18.787Z,13.65
2023-05-09T10:39:47.931Z,16.08
2023-05-09T10:42:16.313Z,15.23
2023-05-09T10:44:44.507Z,13.27
2023-05-09T10:47:13.312Z,15.30
2023-05-09T10:49:41.769Z,14.30
2023-05-09T10:52:10.994Z,14.60
2023-05-09T10:54:38.953Z,20.13
2023-05-09T10:57:10.115Z,11.97
2023-05-09T10:59:39.983Z,15.40
2023-05-09T11:02:13.751Z,16.63
2023-05-09T11:04:41.970Z,14.88
2023-05-09T11:07:24.461Z,12.40
2023-05-09T11:09:53.082Z,12.77
2023-05-09T11:12:22.371Z,13.40
2023-05-09T11:14:51.695Z,11.60
2023-05-09T11:17:30.048Z,12.02
2023-05-09T11:20:00.203Z,11.68
2023-05-09T11:22:32.477Z,13.63
2023-05-09T11:25:04.779Z,13.73
2023-05-09T11:27:42.389Z,12.05
2023-05-09T11:30:12.567Z,11.07
2023-05-09T11:32:45.864Z,12.30
2023-05-09T11:35:15.663Z,12.00
2023-05-09T11:37:49.589Z,11.43
2023-05-09T11:40:19.384Z,12.35
2023-05-09T11:42:49.267Z,11.32
2023-05-09T11:45:18.063Z,12.10
2023-05-09T11:47:47.267Z,11.60
2023-05-09T11:50:17.083Z,12.18
2023-05-09T11:52:45.056Z,10.80
2023-05-09T11:55:15.506Z,11.02
2023-05-09T11:57:45.362Z,11.98
2023-05-09T12:00:14.215Z,13.07
2023-05-09T12:02:45.421Z,11.07
2023-05-09T12:05:15.323Z,10.98
2023-05-09T12:07:43.573Z,11.88
2023-05-09T12:10:15.765Z,10.73
2023-05-09T12:12:46.546Z,12.43
2023-05-09T12:15:15.388Z,15.23
2023-05-09T12:17:44.622Z,11.85
2023-05-09T12:20:12.940Z,10.40
2023-05-09T12:22:44.164Z,11.20
2023-05-09T12:25:12.984Z,11.20
2023-05-09T12:27:41.821Z,10.40
2023-05-09T12:30:14.214Z,10.50
2023-05-09T12:32:42.753Z,9.95
2023-05-09T12:35:11.438Z,11.38
2023-05-09T12:37:39.463Z,11.43
2023-05-09T12:40:12.240Z,11.15
2023-05-09T12:42:40.965Z,10.65
2023-05-09T12:45:11.819Z,11.38
2023-05-09T12:47:41.754Z,11.73
2023-05-09T12:50:13.425Z,11.60
2023-05-09T12:53:01.396Z,11.00
2023-05-09T12:55:31.610Z,11.30
2023-05-09T12:58:01.448Z,13.35
2023-05-09T13:00:43.099Z,9.85
2023-05-09T13:03:22.075Z,11.73
2023-05-09T13:05:55.657Z,11.02
2023-05-09T13:08:23.711Z,9.70
2023-05-09T13:10:57.739Z,12.27
2023-05-09T13:13:32.827Z,9.60
2023-05-09T13:16:02.008Z,9.17
2023-05-09T13:18:29.665Z,9.18
2023-05-09T13:20:57.768Z,8.80
2023-05-09T13:23:25.629Z,10.43
2023-05-09T13:25:53.370Z,9.85
2023-05-09T13:28:21.114Z,8.23
2023-05-09T13:30:48.911Z,9.13
2023-05-09T13:33:25.680Z,9.40
2023-05-09T13:35:54.094Z,10.32
2023-05-09T13:38:21.812Z,9.93
2023-05-09T13:40:49.589Z,11.20
2023-05-09T13:43:17.270Z,10.20
2023-05-09T13:45:44.989Z,9.63
2023-05-09T13:48:12.757Z,12.50
2023-05-09T13:50:41.859Z,10.95
2023-05-09T13:53:09.573Z,10.07
2023-05-09T13:55:37.429Z,10.70
2023-05-09T13:58:05.204Z,9.38
2023-05-09T14:00:34.545Z,9.38
2023-05-09T14:03:02.970Z,8.15
2023-05-09T14:05:32.365Z,8.83
2023-05-09T14:08:02.092Z,9.30
2023-05-09T14:10:30.073Z,8.32
2023-05-09T14:12:57.986Z,9.13
2023-05-09T14:15:25.893Z,11.23
2023-05-09T14:17:53.719Z,9.00
2023-05-09T14:20:21.541Z,8.20
2023-05-09T14:22:49.273Z,9.52
2023-05-09T14:25:18.440Z,8.38
2023-05-09T14:27:46.144Z,9.25
2023-05-09T14:30:15.729Z,8.70
2023-05-09T14:32:43.617Z,8.77
2023-05-09T14:35:11.378Z,8.77
2023-05-09T14:37:39.567Z,10.30
2023-05-09T14:40:09.633Z,8.88
2023-05-09T14:42:38.842Z,7.67
2023-05-09T14:45:10.695Z,9.45
2023-05-09T14:47:38.554Z,7.80
2023-05-09T14:50:07.934Z,7.60
2023-05-09T14:52:35.740Z,8.55
2023-05-09T14:55:03.716Z,8.30
2023-05-09T14:57:31.504Z,9.65
2023-05-09T15:00:09.204Z,7.50
2023-05-09T15:02:47.873Z,7.35
2023-05-09T15:05:16.602Z,7.00
2023-05-09T15:07:44.314Z,7.03
2023-05-09T15:10:12.186Z,7.50
2023-05-09T15:12:40.113Z,7.57
2023-05-09T15:15:16.957Z,8.05
2023-05-09T15:17:46.150Z,8.18
2023-05-09T15:20:15.996Z,8.67
2023-05-09T15:22:44.570Z,7.47
2023-05-09T15:25:12.663Z,8.00
2023-05-09T15:27:40.544Z,8.50
2023-05-09T15:30:09.929Z,8.70
2023-05-09T15:32:42.897Z,6.60
2023-05-09T15:35:11.182Z,7.93
2023-05-09T15:37:38.995Z,7.70
2023-05-09T15:40:08.480Z,9.55
2023-05-09T15:42:36.756Z,7.25
2023-05-09T15:45:04.940Z,7.23
2023-05-09T15:47:32.794Z,8.52
2023-05-09T15:50:02.174Z,7.50
2023-05-09T15:52:29.961Z,8.40
2023-05-09T15:54:58.190Z,8.40
2023-05-09T15:57:26.368Z,9.03
2023-05-09T15:59:55.162Z,6.93
2023-05-09T16:02:23.850Z,8.88
2023-05-09T16:04:51.916Z,8.95
2023-05-09T16:07:21.059Z,9.15
2023-05-09T16:09:49.009Z,8.50
2023-05-09T16:12:17.660Z,8.90
2023-05-09T16:14:45.398Z,8.82
2023-05-09T16:17:13.223Z,10.18
2023-05-09T16:19:40.993Z,9.70
2023-05-09T16:22:08.699Z,9.67
2023-05-09T16:24:38.395Z,11.32
2023-05-09T16:27:06.334Z,12.63
2023-05-09T16:29:34.060Z,13.25
2023-05-09T16:32:01.961Z,12.98
2023-05-09T16:34:29.996Z,12.87
2023-05-09T16:36:57.713Z,13.05
2023-05-09T16:39:27.787Z,15.52
2023-05-09T16:41:57.940Z,13.20
2023-05-09T16:44:25.921Z,13.75
2023-05-09T16:46:53.757Z,13.57
2023-05-09T16:49:21.502Z,14.27
2023-05-09T16:51:49.317Z,14.43
2023-05-09T16:54:17.158Z,15.38
2023-05-09T16:56:44.908Z,14.93
2023-05-09T16:59:14.551Z,11.77
2023-05-09T17:01:42.417Z,11.77
2023-05-09T17:04:10.279Z,10.50
2023-05-09T17:06:38.098Z,12.48
2023-05-09T17:09:05.844Z,11.93
2023-05-09T17:11:33.605Z,10.47
2023-05-09T17:14:02.901Z,12.27
2023-05-09T17:16:32.216Z,12.10
2023-05-09T17:19:00.106Z,10.98
2023-05-09T17:21:28.180Z,10.07
2023-05-09T17:23:56.025Z,7.90
2023-05-09T17:26:24.238Z,6.57
2023-05-09T17:28:51.900Z,5.15
2023-05-09T17:31:19.945Z,6.75
2023-05-09T17:33:49.316Z,5.18
2023-05-09T17:36:17.059Z,7.20
2023-05-09T17:38:44.885Z,6.65
2023-05-09T17:41:12.687Z,6.95
2023-05-09T17:43:40.382Z,7.95
2023-05-09T17:46:08.358Z,6.32
2023-05-09T17:48:36.157Z,5.50
2023-05-09T17:51:05.276Z,4.95
2023-05-09T17:53:33.234Z,5.47
2023-05-09T17:56:01.155Z,7.03
2023-05-09T17:58:29.993Z,4.63
2023-05-09T18:00:59.435Z,4.37
2023-05-09T18:03:28.646Z,5.35
2023-05-09T18:05:57.150Z,4.85
2023-05-09T18:08:26.455Z,4.50
2023-05-09T18:10:54.624Z,3.80
2023-05-09T18:13:22.517Z,3.77
2023-05-09T18:15:50.618Z,5.32
2023-05-09T18:18:18.631Z,4.78
2023-05-09T18:20:47.312Z,4.93
2023-05-09T18:23:16.183Z,3.92
2023-05-09T18:25:45.311Z,4.20
2023-05-09T18:28:13.206Z,5.82
2023-05-09T18:30:41.149Z,3.88
2023-05-09T18:33:09.111Z,3.78
2023-05-09T18:35:37.153Z,3.88
2023-05-09T18:38:04.852Z,3.57
2023-05-09T18:40:32.621Z,7.47
2023-05-09T18:43:01.750Z,3.28
2023-05-09T18:45:30.832Z,6.50
2023-05-09T18:47:58.959Z,3.38
2023-05-09T18:50:27.124Z,4.90
2023-05-09T18:52:55.162Z,4.85
2023-05-09T18:55:23.416Z,4.93
2023-05-09T18:57:51.116Z,5.75
2023-05-09T19:00:20.332Z,4.28
2023-05-09T19:02:48.130Z,5.37
2023-05-09T19:05:15.873Z,4.35
2023-05-09T19:07:43.617Z,6.53
2023-05-09T19:10:13.187Z,4.65
2023-05-09T19:12:41.563Z,2.95
2023-05-09T19:15:10.672Z,6.00
2023-05-09T19:17:40.219Z,5.15
2023-05-09T19:20:09.495Z,6.85
2023-05-09T19:22:37.309Z,5.07
2023-05-09T19:25:05.211Z,4.93
2023-05-09T19:27:32.890Z,8.20
2023-05-09T19:30:00.593Z,4.13
2023-05-09T19:32:28.337Z,8.27
2023-05-09T19:34:58.715Z,6.32
2023-05-09T19:37:26.431Z,6.65
2023-05-09T19:39:54.116Z,5.87
2023-05-09T19:42:21.803Z,6.70
2023-05-09T19:44:52.343Z,10.50
2023-05-09T19:47:20.278Z,8.27
2023-05-09T19:49:47.997Z,9.30
2023-05-09T19:52:17.160Z,9.50
2023-05-09T19:54:44.881Z,10.30
2023-05-09T19:57:13.233Z,15.20
2023-05-09T19:59:40.911Z,13.55
2023-05-09T20:02:08.787Z,13.38
2023-05-09T20:04:37.455Z,12.93
2023-05-09T20:07:06.055Z,14.88
2023-05-09T20:09:35.270Z,14.57
2023-05-09T20:12:03.777Z,13.98
2023-05-09T20:14:32.236Z,12.70
2023-05-09T20:17:00.410Z,14.57
2023-05-09T20:19:28.916Z,13.40
2023-05-09T20:21:56.863Z,12.88
2023-05-09T20:24:24.801Z,15.25
2023-05-09T20:26:55.005Z,14.88
2023-05-09T20:29:24.051Z,14.30
2023-05-09T20:31:52.111Z,14.93
2023-05-09T20:34:21.370Z,10.68
2023-05-09T20:36:53.085Z,10.60
2023-05-09T20:39:21.711Z,14.88
2023-05-09T20:41:51.188Z,18.53
2023-05-09T20:44:20.542Z,13.93
2023-05-09T20:46:48.541Z,12.82
2023-05-09T20:49:16.399Z,9.85
2023-05-09T20:51:44.246Z,11.30
2023-05-09T20:54:12.239Z,9.43
2023-05-09T20:56:40.122Z,11.82
2023-05-09T20:59:08.591Z,9.10
2023-05-09T21:01:40.152Z,10.52
2023-05-09T21:04:08.515Z,11.77
2023-05-09T21:06:36.959Z,10.33
2023-05-09T21:09:06.223Z,9.00
2023-05-09T21:11:34.131Z,9.52
2023-05-09T21:14:02.004Z,9.40
2023-05-09T21:16:29.886Z,9.95
2023-05-09T21:19:02.467Z,9.33
2023-05-09T21:21:31.451Z,9.82
2023-05-09T21:23:59.444Z,7.30
2023-05-09T21:26:27.543Z,7.25
2023-05-09T21:28:55.481Z,7.00
2023-05-09T21:31:23.356Z,6.43
2023-05-09T21:33:51.990Z,6.85
2023-05-09T21:36:21.254Z,6.85
2023-05-09T21:38:49.078Z,5.70
2023-05-09T21:41:17.002Z,7.53
2023-05-09T21:43:44.893Z,7.57
2023-05-09T21:46:12.758Z,4.97
2023-05-09T21:48:40.619Z,5.10
2023-05-09T21:51:09.904Z,5.78
2023-05-09T21:53:39.140Z,5.00
2023-05-09T21:56:08.153Z,5.57
2023-05-09T21:58:35.898Z,7.28
2023-05-09T22:01:03.609Z,5.85
2023-05-09T22:03:31.431Z,6.30
2023-05-09T22:06:17.842Z,6.13
2023-05-09T22:08:46.939Z,7.83
2023-05-09T22:11:15.284Z,8.43
2023-05-09T22:13:43.589Z,7.60
2023-05-09T22:16:11.674Z,9.82
2023-05-09T22:18:39.518Z,8.18
2023-05-09T22:21:07.229Z,9.40
2023-05-09T22:23:34.983Z,8.88
2023-05-09T22:26:04.157Z,10.25
2023-05-09T22:28:31.827Z,10.27
2023-05-09T22:30:59.490Z,10.15
2023-05-09T22:33:27.349Z,11.00
2023-05-09T22:35:55.066Z,9.82
2023-05-09T22:38:22.730Z,12.38
2023-05-09T22:40:50.340Z,13.80
2023-05-09T22:43:20.154Z,13.43
2023-05-09T22:45:47.924Z,14.40
2023-05-09T22:48:15.688Z,12.88
2023-05-09T22:50:43.423Z,15.57
2023-05-09T22:53:11.946Z,16.42
2023-05-09T22:55:39.686Z,17.63
2023-05-09T22:58:08.378Z,16.40
2023-05-09T23:00:37.645Z,17.45
2023-05-09T23:03:05.985Z,17.27
2023-05-09T23:05:37.617Z,15.85
2023-05-09T23:08:09.407Z,14.75
2023-05-09T23:10:37.396Z,15.43
2023-05-09T23:13:07.979Z,14.15
2023-05-09T23:15:39.688Z,14.25
2023-05-09T23:18:12.417Z,14.45
2023-05-09T23:20:40.303Z,17.25
2023-05-09T23:23:08.101Z,16.70
2023-05-09T23:25:35.894Z,18.00
2023-05-09T23:28:03.648Z,18.48
2023-05-09T23:30:31.419Z,19.27
2023-05-09T23:33:00.632Z,17.50
2023-05-09T23:35:28.369Z,16.90
2023-05-09T23:37:56.419Z,15.57
2023-05-09T23:40:24.361Z,13.00
2023-05-09T23:42:52.066Z,14.35
2023-05-09T23:45:19.890Z,10.70
2023-05-09T23:47:47.703Z,14.43
2023-05-09T23:50:17.099Z,11.98
2023-05-09T23:52:45.212Z,11.93
2023-05-09T23:55:13.129Z,13.07
2023-05-09T23:57:41.677Z,10.65
